createdAt,value
2022-11-07T00:00:08.006Z,100737.03
2022-11-07T00:02:39.214Z,100733.69
2022-11-07T00:05:09.142Z,100741.45
2022-11-07T00:07:38.348Z,100745.91
2022-11-07T00:10:08.320Z,100742.48
2022-11-07T00:12:37.514Z,100735.63
2022-11-07T00:15:07.246Z,100739.51
2022-11-07T00:17:36.604Z,100744.27
2022-11-07T00:20:06.601Z,100739.84
2022-11-07T00:22:35.982Z,100748.22
2022-11-07T00:25:05.529Z,100751.72
2022-11-07T00:27:34.891Z,100751.12
2022-11-07T00:30:04.850Z,100752.70
2022-11-07T00:32:34.247Z,100755.20
2022-11-07T00:35:03.649Z,100758.20
2022-11-07T00:37:32.849Z,100745.80
2022-11-07T00:40:02.255Z,100744.59
2022-11-07T00:42:31.450Z,100754.86
2022-11-07T00:45:00.657Z,100757.56
2022-11-07T00:47:29.854Z,100756.83
2022-11-07T00:49:59.226Z,100766.64
2022-11-07T00:52:28.435Z,100769.28
2022-11-07T00:54:57.691Z,100761.25
2022-11-07T00:57:26.902Z,100769.55
2022-11-07T00:59:56.198Z,100768.23
2022-11-07T01:02:25.575Z,100772.02
2022-11-07T01:05:13.153Z,100784.68
2022-11-07T01:07:42.411Z,100780.31
2022-11-07T01:10:11.725Z,100778.20
2022-11-07T01:12:40.927Z,100781.38
2022-11-07T01:15:11.525Z,100788.34
2022-11-07T01:17:40.736Z,100783.81
2022-11-07T01:20:11.154Z,100789.66
2022-11-07T01:22:40.393Z,100790.84
2022-11-07T01:25:10.866Z,100791.11
2022-11-07T01:27:40.237Z,100795.66
2022-11-07T01:30:10.719Z,100793.55
2022-11-07T01:32:39.921Z,100794.66
2022-11-07T01:35:10.960Z,100794.53
2022-11-07T01:37:40.454Z,100794.16
2022-11-07T01:40:10.904Z,100804.00
2022-11-07T01:42:40.353Z,100793.34
2022-11-07T01:45:13.078Z,100789.39
2022-11-07T01:47:42.418Z,100797.11
2022-11-07T01:50:12.077Z,100798.22
2022-11-07T01:52:43.443Z,100806.27
2022-11-07T01:55:15.842Z,100806.64
2022-11-07T01:58:00.336Z,100805.32
2022-11-07T02:00:30.499Z,100800.06
2022-11-07T02:03:10.961Z,100816.02
2022-11-07T02:05:43.382Z,100815.20
2022-11-07T02:08:13.438Z,100810.41
2022-11-07T02:10:43.834Z,100796.77
2022-11-07T02:13:17.043Z,100805.48
2022-11-07T02:15:46.404Z,100805.88
2022-11-07T02:18:15.892Z,100812.70
2022-11-07T02:20:46.283Z,100813.62
2022-11-07T02:23:28.181Z,100816.02
2022-11-07T02:25:59.128Z,100820.33
2022-11-07T02:28:29.530Z,100815.45
2022-11-07T02:30:58.752Z,100807.77
2022-11-07T02:33:28.131Z,100811.45
2022-11-07T02:35:58.518Z,100814.36
2022-11-07T02:38:33.882Z,100812.19
2022-11-07T02:41:06.141Z,100808.03
2022-11-07T02:43:37.298Z,100807.70
2022-11-07T02:46:08.534Z,100799.53
2022-11-07T02:48:50.068Z,100794.95
2022-11-07T02:51:19.875Z,100803.22
2022-11-07T02:53:49.262Z,100799.69
2022-11-07T02:56:19.065Z,100810.59
2022-11-07T02:58:48.474Z,100811.52
2022-11-07T03:01:17.766Z,100803.92
2022-11-07T03:03:49.486Z,100801.30
2022-11-07T03:06:21.636Z,100791.67
2022-11-07T03:08:51.203Z,100796.88
2022-11-07T03:11:20.702Z,100801.44
2022-11-07T03:13:50.664Z,100805.52
2022-11-07T03:16:20.988Z,100803.60
2022-11-07T03:18:50.225Z,100813.03
2022-11-07T03:21:19.877Z,100809.27
2022-11-07T03:23:49.093Z,100814.34
2022-11-07T03:26:18.526Z,100809.78
2022-11-07T03:28:47.738Z,100817.42
2022-11-07T03:31:16.989Z,100819.52
2022-11-07T03:33:46.191Z,100816.48
2022-11-07T03:36:15.662Z,100813.34
2022-11-07T03:38:44.880Z,100810.57
2022-11-07T03:41:15.881Z,100815.02
2022-11-07T03:43:45.825Z,100815.94
2022-11-07T03:46:16.231Z,100818.20
2022-11-07T03:48:45.867Z,100822.16
2022-11-07T03:51:15.162Z,100814.48
2022-11-07T03:53:44.389Z,100821.81
2022-11-07T03:56:14.175Z,100821.28
2022-11-07T03:58:43.531Z,100821.95
2022-11-07T04:01:13.392Z,100817.42
2022-11-07T04:03:42.811Z,100817.42
2022-11-07T04:06:11.999Z,100822.29
2022-11-07T04:08:41.401Z,100815.97
2022-11-07T04:11:12.266Z,100815.42
2022-11-07T04:13:52.348Z,100823.56
2022-11-07T04:16:39.847Z,100824.01
2022-11-07T04:19:09.503Z,100825.16
2022-11-07T04:21:38.720Z,100817.26
2022-11-07T04:24:08.531Z,100823.92
2022-11-07T04:26:55.879Z,100821.28
2022-11-07T04:29:25.119Z,100819.70
2022-11-07T04:31:54.698Z,100821.11
2022-11-07T04:34:24.059Z,100821.35
2022-11-07T04:36:53.382Z,100825.00
2022-11-07T04:39:22.746Z,100818.08
2022-11-07T04:41:51.984Z,100816.89
2022-11-07T04:44:21.274Z,100820.51
2022-11-07T04:46:50.487Z,100818.08
2022-11-07T04:49:20.069Z,100818.11
2022-11-07T04:51:49.798Z,100819.86
2022-11-07T04:54:19.223Z,100825.07
2022-11-07T04:56:48.721Z,100825.07
2022-11-07T04:59:18.021Z,100836.32
2022-11-07T05:01:47.303Z,100838.69
2022-11-07T05:04:16.464Z,100840.84
2022-11-07T05:06:45.704Z,100839.63
2022-11-07T05:09:18.096Z,100830.51
2022-11-07T05:11:48.482Z,100836.25
2022-11-07T05:14:17.689Z,100839.27
2022-11-07T05:16:46.979Z,100842.27
2022-11-07T05:19:20.216Z,100842.50
2022-11-07T05:21:51.460Z,100837.23
2022-11-07T05:24:20.665Z,100840.14
2022-11-07T05:26:50.038Z,100845.41
2022-11-07T05:29:19.242Z,100837.06
2022-11-07T05:31:48.571Z,100838.52
2022-11-07T05:34:17.783Z,100838.66
2022-11-07T05:36:47.092Z,100830.27
2022-11-07T05:39:16.432Z,100832.57
2022-11-07T05:41:45.689Z,100831.52
2022-11-07T05:44:15.183Z,100828.05
2022-11-07T05:46:44.927Z,100832.27
2022-11-07T05:49:14.120Z,100828.11
2022-11-07T05:51:43.559Z,100828.78
2022-11-07T05:54:12.786Z,100822.77
2022-11-07T05:56:43.694Z,100823.82
2022-11-07T05:59:13.871Z,100827.77
2022-11-07T06:01:44.771Z,100829.09
2022-11-07T06:04:14.013Z,100828.95
2022-11-07T06:06:43.435Z,100832.64
2022-11-07T06:09:12.876Z,100834.59
2022-11-07T06:11:42.121Z,100843.69
2022-11-07T06:14:11.455Z,100844.59
2022-11-07T06:16:40.950Z,100836.69
2022-11-07T06:19:10.348Z,100838.41
2022-11-07T06:21:39.585Z,100837.73
2022-11-07T06:24:15.021Z,100836.68
2022-11-07T06:26:41.859Z,100831.84
2022-11-07T06:29:11.138Z,100831.98
2022-11-07T06:31:40.407Z,100840.91
2022-11-07T06:34:09.761Z,100847.16
2022-11-07T06:36:39.056Z,100841.18
2022-11-07T06:39:08.356Z,100854.02
2022-11-07T06:41:37.735Z,100856.73
2022-11-07T06:44:07.157Z,100858.09
2022-11-07T06:46:36.506Z,100865.62
2022-11-07T06:49:05.711Z,100859.20
2022-11-07T06:51:35.085Z,100870.14
2022-11-07T06:54:04.360Z,100867.11
2022-11-07T06:56:33.818Z,100877.58
2022-11-07T06:59:03.033Z,100872.37
2022-11-07T07:01:32.559Z,100865.72
2022-11-07T07:04:02.042Z,100888.39
2022-11-07T07:06:31.399Z,100879.50
2022-11-07T07:09:00.737Z,100879.64
2022-11-07T07:11:30.099Z,100878.19
2022-11-07T07:14:02.112Z,100873.97
2022-11-07T07:16:30.277Z,100884.47
2022-11-07T07:18:59.549Z,100878.84
2022-11-07T07:21:28.934Z,100878.42
2022-11-07T07:23:58.287Z,100880.45
2022-11-07T07:26:28.522Z,100891.95
2022-11-07T07:28:57.901Z,100892.80
2022-11-07T07:31:30.736Z,100886.27
2022-11-07T07:34:00.034Z,100890.16
2022-11-07T07:36:29.364Z,100897.80
2022-11-07T07:38:59.158Z,100898.84
2022-11-07T07:41:28.365Z,100905.51
2022-11-07T07:43:57.730Z,100908.25
2022-11-07T07:46:26.996Z,100908.69
2022-11-07T07:48:56.454Z,100913.69
2022-11-07T07:51:25.864Z,100918.69
2022-11-07T07:53:55.275Z,100923.77
2022-11-07T07:56:24.917Z,100920.23
2022-11-07T07:58:54.263Z,100917.27
2022-11-07T08:01:23.866Z,100923.45
2022-11-07T08:04:02.323Z,100929.77
2022-11-07T08:06:24.411Z,100922.63
2022-11-07T08:08:53.681Z,100929.29
2022-11-07T08:11:23.326Z,100930.16
2022-11-07T08:13:55.105Z,100930.98
2022-11-07T08:16:23.672Z,100940.36
2022-11-07T08:18:52.902Z,100939.66
2022-11-07T08:21:23.683Z,100936.55
2022-11-07T08:23:54.749Z,100944.33
2022-11-07T08:26:23.994Z,100938.97
2022-11-07T08:28:54.973Z,100941.19
2022-11-07T08:31:24.339Z,100938.64
2022-11-07T08:33:53.602Z,100949.88
2022-11-07T08:36:22.982Z,100955.30
2022-11-07T08:38:52.259Z,100960.86
2022-11-07T08:41:22.723Z,100968.36
2022-11-07T08:43:52.087Z,100974.34
2022-11-07T08:46:21.484Z,100978.08
2022-11-07T08:48:50.958Z,100973.92
2022-11-07T08:51:20.251Z,100978.92
2022-11-07T08:53:49.482Z,100986.09
2022-11-07T08:56:18.775Z,100971.28
2022-11-07T08:58:48.141Z,100984.34
2022-11-07T09:01:17.754Z,100988.05
2022-11-07T09:03:54.708Z,100993.24
2022-11-07T09:06:18.399Z,100984.22
2022-11-07T09:08:47.805Z,100990.59
2022-11-07T09:11:19.360Z,100993.52
2022-11-07T09:13:49.349Z,100999.56
2022-11-07T09:16:18.733Z,100997.02
2022-11-07T09:18:49.503Z,100994.91
2022-11-07T09:21:22.664Z,101005.28
2022-11-07T09:23:51.537Z,101000.05
2022-11-07T09:26:20.850Z,101004.66
2022-11-07T09:28:53.158Z,100999.66
2022-11-07T09:31:21.146Z,101007.98
2022-11-07T09:33:50.488Z,101004.30
2022-11-07T09:36:20.282Z,101011.19
2022-11-07T09:38:49.559Z,101007.42
2022-11-07T09:41:38.469Z,101004.36
2022-11-07T09:44:36.548Z,101005.34
2022-11-07T09:47:20.828Z,101001.58
2022-11-07T09:49:56.057Z,101004.73
2022-11-07T09:52:41.067Z,101010.48
2022-11-07T09:55:22.395Z,101014.88
2022-11-07T09:57:55.156Z,101018.41
2022-11-07T10:00:24.943Z,101020.16
2022-11-07T10:02:58.896Z,101020.52
2022-11-07T10:05:40.637Z,101029.06
2022-11-07T10:08:28.170Z,101035.44
2022-11-07T10:11:00.122Z,101037.02
2022-11-07T10:13:47.649Z,101035.65
2022-11-07T10:16:25.835Z,101041.03
2022-11-07T10:19:00.764Z,101043.38
2022-11-07T10:21:48.586Z,101037.28
2022-11-07T10:24:32.651Z,101034.78
2022-11-07T10:29:44.401Z,101052.14
2022-11-07T10:32:26.107Z,101054.09
2022-11-07T10:35:13.571Z,101054.50
2022-11-07T10:37:43.009Z,101060.37
2022-11-07T10:40:21.461Z,101070.84
2022-11-07T10:42:51.555Z,101066.36
2022-11-07T10:45:20.790Z,101067.60
2022-11-07T10:48:00.502Z,101064.33
2022-11-07T10:50:30.665Z,101068.30
2022-11-07T10:53:02.217Z,101067.68
2022-11-07T10:55:34.933Z,101069.50
2022-11-07T10:58:08.114Z,101054.80
2022-11-07T11:00:43.754Z,101058.56
2022-11-07T11:03:19.233Z,101055.88
2022-11-07T11:05:48.610Z,101048.35
2022-11-07T11:08:23.650Z,101050.66
2022-11-07T11:10:52.942Z,101046.41
2022-11-07T11:13:28.309Z,101053.38
2022-11-07T11:16:05.494Z,101053.23
2022-11-07T11:18:31.497Z,101051.00
2022-11-07T11:21:03.069Z,101046.77
2022-11-07T11:23:34.835Z,101035.29
2022-11-07T11:26:09.243Z,101040.92
2022-11-07T11:29:00.372Z,101039.92
2022-11-07T11:31:45.064Z,101040.54
2022-11-07T11:34:17.639Z,101040.63
2022-11-07T11:36:47.905Z,101030.83
2022-11-07T11:39:24.740Z,101039.28
2022-11-07T11:41:58.453Z,101040.40
2022-11-07T11:44:39.281Z,101037.57
2022-11-07T11:47:34.326Z,101038.72
2022-11-07T11:50:03.440Z,101020.98
2022-11-07T11:52:32.735Z,101024.81
2022-11-07T11:55:02.029Z,101032.09
2022-11-07T11:57:49.654Z,101032.20
2022-11-07T12:00:21.202Z,101025.77
2022-11-07T12:03:11.191Z,101027.67
2022-11-07T12:05:53.053Z,101023.48
2022-11-07T12:08:34.493Z,101034.38
2022-11-07T12:11:26.656Z,101034.13
2022-11-07T12:14:15.736Z,101036.23
2022-11-07T12:16:57.781Z,101037.56
2022-11-07T12:19:45.374Z,101038.33
2022-11-07T12:22:24.034Z,101037.73
2022-11-07T12:25:09.752Z,101036.46
2022-11-07T12:27:50.963Z,101029.23
2022-11-07T12:30:27.348Z,101031.52
2022-11-07T12:33:19.922Z,101029.51
2022-11-07T12:36:15.176Z,101034.55
2022-11-07T12:38:50.560Z,101039.92
2022-11-07T12:41:38.135Z,101035.82
2022-11-07T12:44:35.127Z,101042.27
2022-11-07T12:47:07.629Z,101035.31
2022-11-07T12:49:48.872Z,101030.02
2022-11-07T12:52:27.333Z,101032.52
2022-11-07T12:55:01.904Z,101030.77
2022-11-07T12:57:37.605Z,101034.14
2022-11-07T13:00:11.527Z,101029.14
2022-11-07T13:02:51.151Z,101030.49
2022-11-07T13:05:38.731Z,101028.53
2022-11-07T13:08:20.319Z,101025.50
2022-11-07T13:11:04.819Z,101016.61
2022-11-07T13:13:53.785Z,101024.20
2022-11-07T13:16:31.432Z,101017.42
2022-11-07T13:19:12.522Z,101018.42
2022-11-07T13:21:43.843Z,101015.73
2022-11-07T13:24:23.276Z,101009.25
2022-11-07T13:26:52.557Z,101023.05
2022-11-07T13:29:27.736Z,101013.75
2022-11-07T13:32:11.809Z,101009.42
2022-11-07T13:35:02.463Z,101008.22
2022-11-07T13:37:33.897Z,101011.41
2022-11-07T13:40:09.174Z,101005.75
2022-11-07T13:42:38.550Z,101004.34
2022-11-07T13:45:22.916Z,101003.62
2022-11-07T13:47:55.439Z,101007.44
2022-11-07T13:50:27.828Z,101012.82
2022-11-07T13:53:02.321Z,101008.16
2022-11-07T13:56:05.300Z,101011.11
2022-11-07T13:58:36.251Z,101015.22
2022-11-07T14:01:10.640Z,101012.94
2022-11-07T14:03:40.175Z,101008.45
2022-11-07T14:06:14.302Z,101003.28
2022-11-07T14:08:45.806Z,101004.80
2022-11-07T14:11:17.750Z,101009.40
2022-11-07T14:13:49.553Z,101010.39
2022-11-07T14:16:21.827Z,101014.39
2022-11-07T14:18:56.959Z,101015.88
2022-11-07T14:21:31.547Z,101016.71
2022-11-07T14:24:01.305Z,101016.17
2022-11-07T14:26:33.085Z,101016.69
2022-11-07T14:29:03.020Z,101018.67
2022-11-07T14:31:35.278Z,101018.34
2022-11-07T14:34:07.765Z,101018.79
2022-11-07T14:36:37.100Z,101016.64
2022-11-07T14:39:14.376Z,101016.40
2022-11-07T14:41:41.958Z,101011.25
2022-11-07T14:44:19.940Z,101015.52
2022-11-07T14:46:57.459Z,101019.23
2022-11-07T14:49:31.587Z,101016.70
2022-11-07T14:52:00.842Z,101011.89
2022-11-07T14:54:38.404Z,101012.99
2022-11-07T14:57:09.662Z,101012.11
2022-11-07T14:59:39.409Z,101008.17
2022-11-07T15:02:27.054Z,101008.17
2022-11-07T15:05:02.458Z,101013.47
2022-11-07T15:07:32.815Z,101016.81
2022-11-07T15:10:21.926Z,101012.19
2022-11-07T15:12:53.714Z,101009.09
2022-11-07T15:15:24.939Z,101017.00
2022-11-07T15:17:57.133Z,101018.61
2022-11-07T15:20:40.134Z,101017.91
2022-11-07T15:23:21.573Z,101014.53
2022-11-07T15:26:03.368Z,101014.57
2022-11-07T15:28:44.656Z,101010.75
2022-11-07T15:31:26.193Z,101011.19
2022-11-07T15:33:58.446Z,101012.17
2022-11-07T15:36:28.032Z,101003.39
2022-11-07T15:38:58.376Z,101004.20
2022-11-07T15:41:27.749Z,100999.94
2022-11-07T15:43:56.955Z,101002.03
2022-11-07T15:46:38.999Z,101012.06
2022-11-07T15:49:11.399Z,101007.88
2022-11-07T15:51:40.699Z,101011.55
2022-11-07T15:54:13.636Z,101004.23
2022-11-07T15:56:43.325Z,100998.70
2022-11-07T15:59:24.506Z,100996.45
2022-11-07T16:01:54.872Z,101006.45
2022-11-07T16:04:24.134Z,101007.45
2022-11-07T16:06:53.424Z,101011.30
2022-11-07T16:09:23.249Z,101014.20
2022-11-07T16:11:52.490Z,101011.12
2022-11-07T16:14:43.012Z,101005.94
2022-11-07T16:16:53.444Z,101007.92
2022-11-07T16:19:25.591Z,101014.69
2022-11-07T16:21:54.835Z,101016.70
2022-11-07T16:24:24.064Z,101010.93
2022-11-07T16:26:53.748Z,101016.99
2022-11-07T16:29:23.047Z,101014.86
2022-11-07T16:31:52.286Z,101005.81
2022-11-07T16:34:21.557Z,101007.58
2022-11-07T16:36:50.888Z,101007.94
2022-11-07T16:39:21.766Z,101010.44
2022-11-07T16:41:51.543Z,101013.60
2022-11-07T16:44:26.041Z,101013.55
2022-11-07T16:46:53.535Z,101015.23
2022-11-07T16:49:30.781Z,101020.23
2022-11-07T16:52:00.511Z,101020.71
2022-11-07T16:54:29.892Z,101017.91
2022-11-07T16:56:59.106Z,101019.69
2022-11-07T16:59:28.767Z,101020.31
2022-11-07T17:01:58.361Z,101017.22
2022-11-07T17:04:27.843Z,101018.91
2022-11-07T17:06:57.123Z,101024.14
2022-11-07T17:09:27.928Z,101018.79
2022-11-07T17:11:57.148Z,101024.42
2022-11-07T17:14:26.543Z,101016.53
2022-11-07T17:16:55.985Z,101020.35
2022-11-07T17:19:27.040Z,101018.37
2022-11-07T17:21:56.340Z,101017.47
2022-11-07T17:24:25.753Z,101014.66
2022-11-07T17:26:55.021Z,101013.02
2022-11-07T17:29:24.647Z,101012.28
2022-11-07T17:31:54.016Z,101010.90
2022-11-07T17:34:23.454Z,101010.20
2022-11-07T17:36:54.333Z,101017.48
2022-11-07T17:39:23.802Z,101019.14
2022-11-07T17:41:53.481Z,101012.79
2022-11-07T17:44:22.723Z,101026.24
2022-11-07T17:46:52.288Z,101023.55
2022-11-07T17:49:22.094Z,101019.54
2022-11-07T17:51:52.942Z,101026.19
2022-11-07T17:54:28.202Z,101025.28
2022-11-07T17:56:53.621Z,101019.14
2022-11-07T17:59:23.337Z,101023.18
2022-11-07T18:01:52.882Z,101023.51
2022-11-07T18:04:22.255Z,101015.14
2022-11-07T18:06:51.497Z,101016.31
2022-11-07T18:09:20.997Z,101025.06
2022-11-07T18:11:50.402Z,101019.57
2022-11-07T18:14:19.641Z,101013.67
2022-11-07T18:16:49.072Z,101018.67
2022-11-07T18:19:18.936Z,101014.37
2022-11-07T18:21:48.343Z,101011.09
2022-11-07T18:24:17.757Z,101019.63
2022-11-07T18:26:48.518Z,101017.31
2022-11-07T18:29:18.196Z,101019.99
2022-11-07T18:31:51.847Z,101016.02
2022-11-07T18:34:23.674Z,101016.53
2022-11-07T18:36:53.782Z,101014.94
2022-11-07T18:39:23.593Z,101019.23
2022-11-07T18:41:55.333Z,101013.10
2022-11-07T18:44:24.550Z,101017.80
2022-11-07T18:46:54.032Z,101014.94
2022-11-07T18:49:24.488Z,101012.08
2022-11-07T18:51:53.959Z,101012.79
2022-11-07T18:54:23.332Z,101017.57
2022-11-07T18:56:52.741Z,101019.14
2022-11-07T18:59:22.060Z,101023.08
2022-11-07T19:01:51.557Z,101025.52
2022-11-07T19:04:20.892Z,101027.93
2022-11-07T19:06:57.443Z,101016.56
2022-11-07T19:09:30.085Z,101020.80
2022-11-07T19:12:00.496Z,101020.77
2022-11-07T19:14:30.281Z,101012.79
2022-11-07T19:17:00.060Z,101022.50
2022-11-07T19:19:29.694Z,101018.71
2022-11-07T19:21:59.147Z,101025.48
2022-11-07T19:24:28.835Z,101018.97
2022-11-07T19:26:59.983Z,101022.95
2022-11-07T19:29:29.383Z,101023.20
2022-11-07T19:31:58.827Z,101018.83
2022-11-07T19:34:28.308Z,101026.84
2022-11-07T19:36:57.568Z,101021.03
2022-11-07T19:39:27.906Z,101017.09
2022-11-07T19:41:57.324Z,101018.83
2022-11-07T19:44:26.734Z,101014.64
2022-11-07T19:46:56.300Z,101020.03
2022-11-07T19:49:25.648Z,101021.66
2022-11-07T19:51:55.570Z,101022.50
2022-11-07T19:54:25.077Z,101010.63
2022-11-07T19:56:57.437Z,101029.00
2022-11-07T19:59:25.475Z,101028.31
2022-11-07T20:02:25.998Z,101029.27
2022-11-07T20:04:26.544Z,101031.02
2022-11-07T20:06:56.218Z,101030.03
2022-11-07T20:09:25.629Z,101034.78
2022-11-07T20:11:55.051Z,101033.52
2022-11-07T20:14:24.468Z,101036.75
2022-11-07T20:16:53.929Z,101043.07
2022-11-07T20:19:23.342Z,101044.21
2022-11-07T20:21:52.794Z,101039.39
2022-11-07T20:24:22.395Z,101037.53
2022-11-07T20:26:51.664Z,101046.41
2022-11-07T20:29:23.031Z,101036.12
2022-11-07T20:31:52.432Z,101047.34
2022-11-07T20:34:21.993Z,101046.21
2022-11-07T20:36:53.000Z,101048.56
2022-11-07T20:39:22.501Z,101043.53
2022-11-07T20:41:51.920Z,101050.37
2022-11-07T20:44:23.066Z,101045.88
2022-11-07T20:46:52.288Z,101043.23
2022-11-07T20:49:21.759Z,101041.55
2022-11-07T20:51:53.438Z,101040.66
2022-11-07T20:54:23.155Z,101037.24
2022-11-07T20:56:52.380Z,101036.11
2022-11-07T20:59:21.862Z,101035.59
2022-11-07T21:01:51.331Z,101025.95
2022-11-07T21:04:21.167Z,101030.30
2022-11-07T21:06:50.593Z,101031.55
2022-11-07T21:09:22.001Z,101033.17
2022-11-07T21:11:51.361Z,101033.86
2022-11-07T21:14:20.870Z,101038.23
2022-11-07T21:16:50.138Z,101033.37
2022-11-07T21:19:19.420Z,101036.98
2022-11-07T21:21:49.568Z,101038.13
2022-11-07T21:24:18.843Z,101040.52
2022-11-07T21:26:48.420Z,101039.85
2022-11-07T21:29:17.668Z,101033.42
2022-11-07T21:31:47.056Z,101035.23
2022-11-07T21:34:16.384Z,101029.93
2022-11-07T21:36:45.731Z,101031.22
2022-11-07T21:39:16.277Z,101032.21
2022-11-07T21:41:45.756Z,101026.30
2022-11-07T21:44:15.014Z,101025.73
2022-11-07T21:46:44.463Z,101025.48
2022-11-07T21:49:13.691Z,101029.83
2022-11-07T21:51:42.963Z,101021.62
2022-11-07T21:54:13.497Z,101023.03
2022-11-07T21:56:43.636Z,101022.69
2022-11-07T21:59:13.487Z,101022.88
2022-11-07T22:01:43.179Z,101018.88
2022-11-07T22:04:13.840Z,101019.94
2022-11-07T22:06:45.114Z,101021.27
2022-11-07T22:09:20.580Z,101020.27
2022-11-07T22:11:50.880Z,101015.82
2022-11-07T22:14:22.334Z,101020.97
2022-11-07T22:16:52.453Z,101019.50
2022-11-07T22:19:21.664Z,101019.16
2022-11-07T22:21:51.059Z,101017.14
2022-11-07T22:24:20.352Z,101023.47
2022-11-07T22:26:49.866Z,101019.34
2022-11-07T22:29:19.157Z,101024.53
2022-11-07T22:31:48.599Z,101016.19
2022-11-07T22:34:17.808Z,101011.33
2022-11-07T22:36:47.303Z,101017.34
2022-11-07T22:39:16.726Z,101004.42
2022-11-07T22:41:45.956Z,101009.85
2022-11-07T22:44:15.235Z,101015.16
2022-11-07T22:46:44.487Z,101008.70
2022-11-07T22:49:13.805Z,101002.66
2022-11-07T22:51:43.290Z,100997.18
2022-11-07T22:54:13.818Z,100991.31
2022-11-07T22:56:43.162Z,100996.95
2022-11-07T22:59:12.730Z,100989.17
2022-11-07T23:01:43.372Z,100986.96
2022-11-07T23:04:15.910Z,100982.05
2022-11-07T23:06:45.748Z,100974.30
2022-11-07T23:09:16.582Z,100970.28
2022-11-07T23:11:47.449Z,100968.83
2022-11-07T23:14:19.553Z,100974.73
2022-11-07T23:16:51.561Z,100978.50
2022-11-07T23:19:23.968Z,100971.70
2022-11-07T23:21:54.928Z,100974.83
2022-11-07T23:24:24.866Z,100975.33
2022-11-07T23:26:54.205Z,100974.48
2022-11-07T23:29:25.445Z,100970.23
2022-11-07T23:31:54.970Z,100970.38
2022-11-07T23:34:26.187Z,100973.56
2022-11-07T23:36:55.435Z,100968.28
2022-11-07T23:39:26.192Z,100960.02
2022-11-07T23:41:55.474Z,100960.64
2022-11-07T23:44:24.926Z,100961.12
2022-11-07T23:47:12.244Z,100955.85
2022-11-07T23:49:59.186Z,100962.79
2022-11-07T23:52:28.419Z,100962.73
2022-11-07T23:55:15.325Z,100951.67
2022-11-07T23:58:02.497Z,100952.77
